Oso, Washington
Current Conditions -  °F | °C
As of 1:35 PM on Friday 19 Dec 2014 (Local Time) from KAWO Reporting Station
Overcast Overcast  
Wind Chill: 52°   Ceiling: 3500
Heat Index: 52°   Visibility: 10mi
Dew Point: 41°   Wind: 16mph
Humidity: 67%   Direction: 180°S
Pressure: 29.94"   Gusts: 23mph
Location:  48.2067°N, 121.947°W
Report Text: KAWO 192135Z AUTO 18014G20KT 10SM SCT030 BKN035 OVC044 11/05 A2994 RMK AO1
Loading
Personal Weather Stations






























Interactive Weather Map New forecast layout! Learn more

10-Day Weather Forecast

Advertisements
Track Severe Weather on mobile